Time;durP1;ratioP1;P1;durP2;ratioP2;P2;SDS_P1;SDS_P2;PMS_P1;PMS_P2;Temp;Humidity;BMP_temperature;BMP_pressure;BME280_temperature;BME280_humidity;BME280_pressure;Samples;Min_cycle;Max_cycle;Signal;HPM_P1;HPM_P2
2021/09/10 00:00:47;;;;;;;17.55;11.77;;;;;;;19.89;60.60;101514.47;5008488;28;102517;-88
2021/09/10 00:03:14;;;;;;;16.83;12.07;;;;;;;19.89;60.30;101514.47;5005784;28;103446;-87
2021/09/10 00:05:42;;;;;;;17.00;12.18;;;;;;;19.89;60.79;101520.00;5006031;28;102705;-87
2021/09/10 00:08:08;;;;;;;14.90;11.03;;;;;;;19.89;60.48;101522.75;5007160;28;102426;-87
2021/09/10 00:10:35;;;;;;;16.98;11.50;;;;;;;19.89;60.63;101517.22;5008429;28;102369;-89
2021/09/10 00:13:02;;;;;;;15.35;10.77;;;;;;;19.88;60.70;101515.59;5008321;28;102748;-87
2021/09/10 00:15:28;;;;;;;17.38;11.32;;;;;;;19.88;60.76;101518.38;5021067;27;103292;-86
2021/09/10 00:17:55;;;;;;;14.40;10.40;;;;;;;19.88;60.72;101515.59;5000535;28;102191;-86
2021/09/10 00:20:24;;;;;;;16.50;11.10;;;;;;;19.89;60.51;101519.19;5004334;28;102525;-87
2021/09/10 00:22:52;;;;;;;15.55;12.10;;;;;;;19.89;60.75;101514.47;5022434;27;103092;-86
2021/09/10 00:25:19;;;;;;;;;;;;;;;19.88;60.82;101515.59;5010349;28;103792;-86
2021/09/10 00:27:46;;;;;;;15.75;10.95;;;;;;;19.88;60.61;101515.59;5003706;28;102468;-85
2021/09/10 00:30:13;;;;;;;17.10;11.75;;;;;;;19.87;60.70;101505.69;5009373;28;102653;-87
2021/09/10 00:32:40;;;;;;;16.20;11.32;;;;;;;19.88;60.67;101506.50;5008160;28;102503;-86
2021/09/10 00:35:07;;;;;;;15.55;11.10;;;;;;;19.87;60.82;101500.16;5005552;28;105181;-87
2021/09/10 00:37:34;;;;;;;18.77;12.15;;;;;;;19.87;60.90;101497.41;5002866;28;102268;-88
2021/09/10 00:40:04;;;;;;;16.10;11.63;;;;;;;19.87;61.00;101493.78;5003034;28;102419;-86
2021/09/10 00:42:31;;;;;;;18.35;12.18;;;;;;;19.87;60.81;101493.78;5009934;28;102365;-87
2021/09/10 00:44:58;;;;;;;15.90;11.07;;;;;;;19.87;60.86;101500.16;5014974;28;102922;-86
2021/09/10 00:47:32;;;;;;;13.23;11.00;;;;;;;19.87;60.51;101494.63;5020247;27;102640;-86
2021/09/10 00:49:59;;;;;;;14.85;11.57;;;;;;;19.86;60.96;101494.94;5003072;28;102516;-86
2021/09/10 00:52:26;;;;;;;15.85;10.68;;;;;;;19.86;60.75;101498.50;5008570;28;102299;-87
2021/09/10 00:54:53;;;;;;;14.38;11.25;;;;;;;19.86;60.85;101500.47;5007499;28;102791;-87
2021/09/10 00:57:25;;;;;;;16.63;11.35;;;;;;;19.86;60.82;101503.22;5006672;27;102264;-88
2021/09/10 00:59:51;;;;;;;15.55;11.70;;;;;;;19.86;60.75;101504.03;5002264;28;102485;-88
2021/09/10 01:02:18;;;;;;;12.35;9.88;;;;;;;19.85;60.98;101502.41;5002117;28;102821;-89
2021/09/10 01:04:46;;;;;;;17.05;11.68;;;;;;;19.86;60.80;101493.00;5017864;27;102503;-89
2021/09/10 01:07:13;;;;;;;14.15;10.85;;;;;;;19.86;61.01;101501.28;5020405;28;102101;-89
2021/09/10 01:09:46;;;;;;;16.88;12.13;;;;;;;19.86;60.75;101504.03;5004968;28;102395;-88
2021/09/10 01:12:13;;;;;;;16.38;10.85;;;;;;;19.85;61.11;101502.41;5018521;27;102514;-89
2021/09/10 01:14:42;;;;;;;15.88;11.02;;;;;;;19.85;60.90;101493.31;5008160;28;102792;-89
2021/09/10 01:17:09;;;;;;;17.27;11.35;;;;;;;19.85;61.05;101490.56;5006174;28;102432;-90
2021/09/10 01:20:00;;;;;;;13.35;10.60;;;;;;;19.85;61.22;101498.84;5004907;28;102222;-91
2021/09/10 01:23:03;;;;;;;14.18;10.27;;;;;;;19.85;61.20;101485.03;5001968;27;102727;-91
2021/09/10 01:25:56;;;;;;;13.70;10.18;;;;;;;19.85;61.16;101490.56;5010765;28;103404;-88
2021/09/10 01:28:23;;;;;;;17.02;11.65;;;;;;;19.84;61.06;101484.22;5011512;28;102305;-88
2021/09/10 01:31:37;;;;;;;13.45;10.15;;;;;;;19.84;61.29;101489.75;5008699;28;102337;-89
2021/09/10 01:34:05;;;;;;;15.20;11.07;;;;;;;19.84;61.27;101484.22;4991860;28;102381;-88
2021/09/10 01:36:31;;;;;;;14.35;9.95;;;;;;;19.84;61.17;101478.69;5017311;28;105452;-88
2021/09/10 01:39:04;;;;;;;14.23;10.30;;;;;;;19.85;60.92;101479.50;5011737;28;102559;-87
2021/09/10 01:41:34;;;;;;;14.90;10.75;;;;;;;19.84;61.11;101478.69;5025543;27;103964;-88
2021/09/10 01:44:01;;;;;;;13.20;10.47;;;;;;;19.84;61.15;101481.47;5019092;28;102329;-87
2021/09/10 01:46:27;;;;;;;12.05;9.98;;;;;;;19.84;61.15;101483.41;5007782;28;102665;-90
2021/09/10 01:48:57;;;;;;;14.07;10.43;;;;;;;19.84;61.15;101488.94;4999654;28;102195;-89
2021/09/10 01:51:48;;;;;;;13.43;10.30;;;;;;;19.84;61.58;101486.97;4989708;28;102151;-90
2021/09/10 01:54:29;;;;;;;13.38;10.32;;;;;;;19.84;61.30;101486.16;4997050;28;101874;-90
2021/09/10 01:57:01;;;;;;;12.68;9.85;;;;;;;19.83;61.16;101481.75;5014232;28;102800;-90
2021/09/10 01:59:28;;;;;;;14.88;10.27;;;;;;;19.84;61.19;101488.94;5002251;28;103418;-90
2021/09/10 02:01:58;;;;;;;15.27;10.43;;;;;;;19.84;61.47;101489.75;5033497;27;102218;-90
2021/09/10 02:04:30;;;;;;;16.67;10.52;;;;;;;19.83;61.15;101488.09;4995240;28;102425;-90
2021/09/10 02:07:00;;;;;;;14.00;10.77;;;;;;;19.83;61.24;101490.03;5005849;28;102952;-90
2021/09/10 02:09:34;;;;;;;12.40;9.55;;;;;;;19.83;61.38;101484.50;5011443;28;102604;-91
2021/09/10 02:12:03;;;;;;;12.75;9.88;;;;;;;19.83;61.27;101490.84;4990599;28;102490;-91
2021/09/10 02:14:34;;;;;;;14.00;9.82;;;;;;;19.82;61.26;101491.19;4990410;28;102508;-91
2021/09/10 02:17:04;;;;;;;15.52;10.27;;;;;;;19.83;61.47;101482.56;5006040;27;106614;-91
2021/09/10 02:19:32;;;;;;;13.50;10.13;;;;;;;19.82;61.31;101475.41;5008043;28;102588;-90
2021/09/10 02:22:00;;;;;;;13.15;10.15;;;;;;;19.83;61.49;101476.22;5010517;28;102261;-90
2021/09/10 02:24:27;;;;;;;12.55;10.50;;;;;;;19.82;61.45;101480.13;5009844;28;102650;-90
2021/09/10 02:26:54;;;;;;;11.82;9.65;;;;;;;19.82;61.30;101483.69;5020693;27;103552;-90
2021/09/10 02:29:22;;;;;;;13.93;9.88;;;;;;;19.82;61.34;101483.69;5003880;28;102977;-90
2021/09/10 02:31:51;;;;;;;13.02;10.10;;;;;;;19.81;61.46;101484.84;5022545;27;102534;-90
2021/09/10 02:34:17;;;;;;;12.02;9.68;;;;;;;19.82;61.31;101485.66;5003464;28;102720;-90
2021/09/10 02:36:45;;;;;;;13.07;9.70;;;;;;;19.81;61.43;101482.09;5009131;28;102694;-89
2021/09/10 02:39:12;;;;;;;13.00;9.95;;;;;;;19.82;61.46;101485.66;5010055;28;102151;-90
2021/09/10 02:41:40;;;;;;;13.43;10.00;;;;;;;19.82;61.53;101485.66;4991048;28;103792;-89
2021/09/10 02:44:08;;;;;;;12.10;9.27;;;;;;;19.82;61.41;101491.19;5008857;28;102793;-90
2021/09/10 02:46:38;;;;;;;12.07;9.00;;;;;;;19.81;61.38;101487.59;5008959;28;104926;-89
2021/09/10 02:49:06;;;;;;;13.18;9.68;;;;;;;19.81;61.32;101495.06;5021380;27;102622;-89
2021/09/10 02:51:33;;;;;;;13.10;9.98;;;;;;;19.81;61.50;101495.91;5006728;28;102837;-89
2021/09/10 02:54:00;;;;;;;14.25;9.80;;;;;;;19.81;61.61;101495.06;5010719;28;102528;-89
2021/09/10 02:56:34;;;;;;;13.60;10.00;;;;;;;19.80;61.59;101488.75;5016418;27;103360;-90
2021/09/10 02:59:02;;;;;;;10.45;8.80;;;;;;;19.80;61.42;101488.75;4990440;28;102530;-88
2021/09/10 03:01:28;;;;;;;11.00;8.98;;;;;;;19.80;61.52;101493.44;5006765;28;102661;-89
2021/09/10 03:03:57;;;;;;;10.80;8.98;;;;;;;19.80;61.73;101491.50;5023829;28;102510;-89
2021/09/10 03:06:23;;;;;;;10.30;8.93;;;;;;;19.80;61.62;101494.28;5021732;27;102679;-85
2021/09/10 03:08:50;;;;;;;13.00;9.68;;;;;;;19.79;61.69;101498.13;4991922;28;102559;-87
2021/09/10 03:11:17;;;;;;;10.52;8.88;;;;;;;19.79;61.80;101495.38;5008328;28;103833;-88
2021/09/10 03:13:44;;;;;;;11.02;8.90;;;;;;;19.80;61.94;101499.78;5006078;28;102444;-87
2021/09/10 03:16:12;;;;;;;10.82;8.75;;;;;;;19.79;61.62;101500.91;5021151;27;103040;-87
2021/09/10 03:18:39;;;;;;;10.88;8.82;;;;;;;19.80;61.71;101498.94;5016742;28;102547;-86
2021/09/10 03:21:07;;;;;;;11.45;9.00;;;;;;;19.79;61.45;101503.66;5005664;28;102351;-88
2021/09/10 03:23:33;;;;;;;10.63;8.83;;;;;;;19.80;61.62;101498.94;5007966;28;102675;-87
2021/09/10 03:26:00;;;;;;;12.63;9.35;;;;;;;19.80;61.45;101496.19;5005997;28;102830;-87
2021/09/10 03:28:27;;;;;;;11.30;9.10;;;;;;;19.79;61.66;101498.13;5001996;28;102550;-86
2021/09/10 03:30:54;;;;;;;11.80;8.90;;;;;;;19.79;61.72;101492.63;5006539;28;102641;-86
2021/09/10 03:33:21;;;;;;;11.10;8.65;;;;;;;19.78;61.63;101496.53;5005991;28;103210;-85
2021/09/10 03:35:50;;;;;;;12.10;9.07;;;;;;;19.79;61.96;101492.63;5007113;28;103186;-86
2021/09/10 03:38:19;;;;;;;10.68;8.70;;;;;;;19.79;61.86;101494.56;4991378;28;102575;-86
2021/09/10 03:40:46;;;;;;;10.95;8.77;;;;;;;19.79;61.83;101497.31;5016120;28;102148;-87
2021/09/10 03:43:18;;;;;;;12.88;8.82;;;;;;;19.78;61.84;101496.53;5025626;27;102581;-87
2021/09/10 03:45:48;;;;;;;10.85;8.55;;;;;;;19.78;61.71;101496.53;4979551;28;104631;-87
2021/09/10 03:48:15;;;;;;;9.05;7.95;;;;;;;19.78;61.60;101493.75;4991105;28;102476;-87
2021/09/10 03:50:43;;;;;;;13.45;9.13;;;;;;;19.77;61.80;101503.19;5007574;28;102650;-87
2021/09/10 03:53:09;;;;;;;10.80;8.65;;;;;;;19.78;61.96;101504.00;5009545;28;102455;-88
2021/09/10 03:55:38;;;;;;;10.73;8.60;;;;;;;19.78;61.85;101501.22;5019495;27;102733;-88
2021/09/10 03:58:04;;;;;;;10.33;8.47;;;;;;;19.77;61.85;101503.19;5023530;27;102218;-89
2021/09/10 04:00:35;;;;;;;9.52;8.07;;;;;;;19.77;61.93;101505.94;4989565;28;102254;-89
2021/09/10 04:03:03;;;;;;;11.48;8.13;;;;;;;19.76;61.76;101504.28;4996306;28;105351;-90
2021/09/10 04:05:31;;;;;;;10.70;8.32;;;;;;;19.77;62.08;101500.41;5006591;28;105199;-89
2021/09/10 04:07:59;;;;;;;9.90;7.45;;;;;;;19.76;61.68;101507.06;4989958;28;102523;-88
2021/09/10 04:10:26;;;;;;;9.77;8.57;;;;;;;19.76;61.77;101503.47;5003337;28;102485;-90
2021/09/10 04:12:55;;;;;;;12.02;9.27;;;;;;;19.76;61.66;101501.53;4999647;27;102320;-89
2021/09/10 04:15:27;;;;;;;9.43;8.40;;;;;;;19.77;62.04;101503.19;5004956;28;102881;-87
2021/09/10 04:17:54;;;;;;;9.10;8.07;;;;;;;19.77;61.85;101500.41;4999218;28;102570;-88
2021/09/10 04:20:22;;;;;;;10.80;8.40;;;;;;;19.77;61.84;101494.09;5011738;28;103074;-90
2021/09/10 04:22:49;;;;;;;11.05;8.43;;;;;;;19.77;62.05;101499.59;5009856;28;102764;-88
2021/09/10 04:25:16;;;;;;;10.88;8.75;;;;;;;19.76;62.05;101501.53;5017878;28;104323;-88
2021/09/10 04:27:43;;;;;;;10.45;7.90;;;;;;;19.77;61.88;101496.84;4999129;28;102599;-88
2021/09/10 04:30:14;;;;;;;11.45;8.45;;;;;;;19.76;62.04;101493.25;5000445;28;102419;-88
2021/09/10 04:32:40;;;;;;;10.57;7.85;;;;;;;19.77;62.00;101500.41;5004568;28;102497;-88
2021/09/10 04:35:11;;;;;;;11.70;8.70;;;;;;;19.76;61.90;101493.25;4995119;28;104745;-87
2021/09/10 04:37:38;;;;;;;9.82;8.25;;;;;;;19.77;62.05;101489.38;5008709;28;102567;-88
2021/09/10 04:40:07;;;;;;;10.32;8.30;;;;;;;19.75;61.74;101486.09;5008043;28;102413;-90
2021/09/10 04:42:38;;;;;;;11.35;8.65;;;;;;;19.76;62.07;101482.19;5002223;22;102786;-46
2021/09/10 04:45:06;;;;;;;11.52;8.25;;;;;;;19.75;61.91;101483.34;4987223;28;103873;-45
2021/09/10 04:47:34;;;;;;;11.02;8.95;;;;;;;19.76;62.28;101487.72;4989205;28;102792;-47
2021/09/10 04:50:01;;;;;;;10.48;8.05;;;;;;;19.76;62.09;101492.44;4986606;28;102224;-49
2021/09/10 04:52:28;;;;;;;10.10;8.07;;;;;;;19.75;61.92;101491.63;4974927;28;102576;-46
2021/09/10 04:54:55;;;;;;;7.82;6.90;;;;;;;19.75;62.04;101494.38;4991737;28;104093;-45
2021/09/10 04:57:22;;;;;;;9.45;7.22;;;;;;;19.75;62.05;101486.09;4988853;28;102827;-45
2021/09/10 04:59:48;;;;;;;8.90;7.70;;;;;;;19.76;62.22;101481.38;4989534;28;102558;-45
2021/09/10 05:02:16;;;;;;;10.48;7.55;;;;;;;19.75;62.13;101483.34;4993826;28;102605;-45
2021/09/10 05:04:44;;;;;;;8.07;7.18;;;;;;;19.76;62.14;101479.44;4986887;28;104081;-48
2021/09/10 05:07:12;;;;;;;8.20;7.15;;;;;;;19.75;61.87;101477.81;4995708;28;102935;-46
2021/09/10 05:09:40;;;;;;;11.53;7.97;;;;;;;19.76;61.84;101470.34;4992804;28;102487;-47
2021/09/10 05:12:07;;;;;;;11.00;8.07;;;;;;;19.76;62.39;101476.66;4989387;28;102984;-46
2021/09/10 05:14:33;;;;;;;12.25;8.43;;;;;;;19.76;62.57;101471.16;4991888;28;102358;-45
2021/09/10 05:17:00;;;;;;;10.02;7.65;;;;;;;19.77;61.98;101478.31;4990232;28;102724;-45
2021/09/10 05:19:27;;;;;;;14.00;8.60;;;;;;;19.77;61.99;101472.81;4987985;28;102703;-46
2021/09/10 05:21:54;;;;;;;11.40;8.27;;;;;;;19.77;62.14;101474.75;4986019;28;102506;-46
2021/09/10 05:24:22;;;;;;;11.02;8.15;;;;;;;19.78;62.16;101470.84;4989592;28;103802;-47
2021/09/10 05:26:49;;;;;;;9.10;7.72;;;;;;;19.79;62.48;101467.75;4987211;28;102052;-47
2021/09/10 05:29:16;;;;;;;10.45;7.55;;;;;;;19.80;62.45;101476.84;4984911;28;102304;-45
2021/09/10 05:31:42;;;;;;;9.95;7.57;;;;;;;19.80;62.51;101471.34;4995265;28;102478;-45
2021/09/10 05:34:11;;;;;;;9.15;7.60;;;;;;;19.80;62.64;101472.16;4988920;28;103901;-47
2021/09/10 05:36:39;;;;;;;10.57;7.85;;;;;;;19.81;62.19;101473.78;4990531;28;102786;-46
2021/09/10 05:39:07;;;;;;;10.20;7.97;;;;;;;19.81;62.49;101478.50;4979423;28;104007;-45
2021/09/10 05:41:34;;;;;;;9.00;7.45;;;;;;;19.82;62.46;101469.91;4994731;22;102895;-46
2021/09/10 05:44:00;;;;;;;9.40;7.13;;;;;;;19.82;62.57;101469.91;4988662;28;103813;-45
2021/09/10 05:46:27;;;;;;;10.32;6.93;;;;;;;19.82;62.38;101469.91;4992244;28;102468;-48
2021/09/10 05:48:53;;;;;;;9.40;6.72;;;;;;;19.84;62.75;101477.88;4991957;28;102360;-46
2021/09/10 05:51:19;;;;;;;9.00;7.18;;;;;;;19.82;62.43;101472.66;4993341;28;102857;-46
2021/09/10 05:53:47;;;;;;;10.40;7.45;;;;;;;19.83;62.35;101474.28;4988798;28;104096;-48
2021/09/10 05:56:16;;;;;;;8.43;6.88;;;;;;;19.84;62.85;101472.34;4989753;28;102365;-47
2021/09/10 05:58:43;;;;;;;;;;;;;;;19.84;62.99;101462.13;4991556;28;103221;-47
2021/09/10 06:01:09;;;;;;;9.75;7.35;;;;;;;19.84;62.88;101462.13;4989535;28;102666;-47
2021/09/10 06:03:36;;;;;;;8.40;6.90;;;;;;;19.84;62.77;101459.34;4988888;28;103744;-46
2021/09/10 06:06:07;;;;;;;10.52;7.70;;;;;;;19.85;62.84;101458.22;4988221;28;102365;-47
2021/09/10 06:08:35;;;;;;;9.20;6.65;;;;;;;19.85;62.56;101463.75;4997635;28;102584;-46
2021/09/10 06:11:02;;;;;;;8.73;6.55;;;;;;;19.85;62.81;101469.25;4988529;28;102102;-46
2021/09/10 06:13:30;;;;;;;9.43;6.78;;;;;;;19.86;62.59;101468.13;4993290;28;103944;-45
2021/09/10 06:15:56;;;;;;;8.88;6.80;;;;;;;19.85;62.69;101463.75;4983606;28;102496;-47
2021/09/10 06:18:26;;;;;;;9.50;6.82;;;;;;;19.86;62.79;101465.38;4997373;28;102877;-45
2021/09/10 06:20:56;;;;;;;8.32;6.40;;;;;;;19.86;62.66;101470.88;4999686;28;102976;-45
2021/09/10 06:23:23;;;;;;;9.05;6.65;;;;;;;19.85;62.60;101469.25;4993573;28;107525;-46
2021/09/10 06:25:50;;;;;;;8.37;6.80;;;;;;;19.86;63.04;101470.88;5009980;28;102421;-45
2021/09/10 06:28:17;;;;;;;12.50;6.55;;;;;;;19.87;62.51;101468.94;5000069;28;102067;-46
2021/09/10 06:30:45;;;;;;;9.23;6.97;;;;;;;19.87;62.66;101478.06;5001643;28;102405;-47
2021/09/10 06:33:12;;;;;;;11.13;7.18;;;;;;;19.86;62.51;101481.94;5004481;28;104076;-45
2021/09/10 06:35:39;;;;;;;12.45;7.03;;;;;;;19.87;62.73;101486.34;5010133;28;102124;-48
2021/09/10 06:38:05;;;;;;;8.40;6.45;;;;;;;19.87;62.45;101478.06;5007017;28;102708;-48
2021/09/10 06:40:31;;;;;;;7.93;6.70;;;;;;;19.87;62.63;101475.31;5006740;28;102239;-46
2021/09/10 06:43:00;;;;;;;9.20;6.47;;;;;;;19.87;62.59;101469.78;5018729;27;104202;-45
2021/09/10 06:45:26;;;;;;;13.02;7.13;;;;;;;19.88;62.40;101479.69;5023864;27;102012;-47
2021/09/10 06:47:54;;;;;;;6.72;6.00;;;;;;;19.87;62.33;101478.06;5034302;27;102604;-45
2021/09/10 06:50:21;;;;;;;8.35;5.97;;;;;;;19.87;62.42;101471.69;5021665;27;102782;-46
2021/09/10 06:52:47;;;;;;;7.38;6.05;;;;;;;19.89;62.34;101472.22;5017295;27;102997;-45
2021/09/10 06:55:14;;;;;;;7.18;6.00;;;;;;;19.87;62.31;101478.06;5026246;27;102174;-45
2021/09/10 06:57:40;;;;;;;7.43;6.00;;;;;;;19.89;62.20;101478.56;5031806;27;102616;-45
2021/09/10 07:00:08;;;;;;;8.45;5.90;;;;;;;19.88;62.25;101476.94;5034447;27;102209;-45
2021/09/10 07:02:34;;;;;;;8.05;5.68;;;;;;;19.89;62.63;101483.25;5026200;27;104125;-46
2021/09/10 07:05:03;;;;;;;8.90;6.13;;;;;;;19.88;62.19;101465.88;5021945;27;102592;-46
2021/09/10 07:07:29;;;;;;;12.32;7.10;;;;;;;19.89;62.30;101473.03;5022780;27;103378;-48
2021/09/10 07:09:57;;;;;;;8.68;5.68;;;;;;;19.89;62.41;101473.03;5024738;27;102214;-48
2021/09/10 07:12:25;;;;;;;9.10;5.95;;;;;;;19.90;62.26;101460.84;5029701;27;103876;-48
2021/09/10 07:14:52;;;;;;;8.70;5.90;;;;;;;19.90;62.39;101471.88;5016307;27;103269;-46
2021/09/10 07:17:20;;;;;;;9.02;6.28;;;;;;;19.90;62.26;101466.34;5016715;27;102611;-47
2021/09/10 07:19:47;;;;;;;7.45;5.78;;;;;;;19.91;62.26;101462.50;5028280;27;102163;-48
2021/09/10 07:22:15;;;;;;;7.88;5.95;;;;;;;19.91;62.35;101467.19;5020315;27;104054;-45
2021/09/10 07:24:42;;;;;;;9.10;5.90;;;;;;;19.92;62.20;101464.09;5029892;27;102343;-45
2021/09/10 07:27:09;;;;;;;8.27;6.60;;;;;;;19.92;62.18;101464.09;5032202;27;102279;-46
2021/09/10 07:29:36;;;;;;;7.05;6.30;;;;;;;19.93;62.22;101465.72;5022061;27;102592;-46
2021/09/10 07:32:02;;;;;;;9.05;6.45;;;;;;;19.95;62.24;101467.38;5026308;27;104322;-46
2021/09/10 07:34:29;;;;;;;7.80;5.93;;;;;;;19.95;62.34;101464.63;5037571;27;102529;-46
2021/09/10 07:36:58;;;;;;;8.57;6.00;;;;;;;19.96;62.41;101463.47;5017052;27;102332;-46
2021/09/10 07:39:27;;;;;;;7.50;6.38;;;;;;;19.96;62.21;101463.47;5026904;27;102248;-46
2021/09/10 07:41:54;;;;;;;10.70;6.55;;;;;;;19.98;62.30;101461.19;5024637;27;103640;-45
2021/09/10 07:44:20;;;;;;;7.93;6.15;;;;;;;20.00;62.04;101461.72;5021264;27;102668;-46
2021/09/10 07:46:48;;;;;;;16.52;7.40;;;;;;;19.99;62.11;101460.09;5017585;27;102754;-47
2021/09/10 07:49:14;;;;;;;8.65;6.18;;;;;;;19.99;62.05;101458.13;5031168;27;102541;-46
2021/09/10 07:51:42;;;;;;;9.98;7.05;;;;;;;20.01;62.16;101455.03;5024603;27;104286;-47
2021/09/10 07:54:09;;;;;;;8.37;6.60;;;;;;;20.01;62.03;101455.03;5025801;27;102135;-47
2021/09/10 07:56:37;;;;;;;9.63;6.65;;;;;;;20.02;62.24;101451.16;5018900;27;102286;-45
2021/09/10 07:59:03;;;;;;;9.77;6.77;;;;;;;20.02;62.32;101446.47;5013323;27;102342;-47
2021/09/10 08:01:30;;;;;;;10.88;6.90;;;;;;;20.04;62.23;101448.88;5016464;27;103981;-48
2021/09/10 08:03:57;;;;;;;6.93;5.80;;;;;;;20.05;61.98;101442.22;5027951;27;102292;-47
2021/09/10 08:06:24;;;;;;;7.38;6.05;;;;;;;20.06;62.20;101449.41;5028490;27;102028;-46
2021/09/10 08:08:51;;;;;;;9.23;6.28;;;;;;;20.06;62.37;101443.88;5023706;27;102285;-48
2021/09/10 08:11:17;;;;;;;8.10;6.32;;;;;;;20.07;62.00;101448.25;5027914;27;103948;-45
2021/09/10 08:13:45;;;;;;;9.30;6.68;;;;;;;20.08;62.07;101433.31;5022043;27;102784;-47
2021/09/10 08:16:12;;;;;;;7.50;6.47;;;;;;;20.09;62.25;101440.47;5017661;27;102921;-45
2021/09/10 08:18:39;;;;;;;8.05;6.32;;;;;;;20.09;62.05;101443.25;5029465;27;102127;-46
2021/09/10 08:21:05;;;;;;;8.85;7.40;;;;;;;20.10;61.99;101439.34;5022435;27;102562;-47
2021/09/10 08:23:32;;;;;;;8.32;5.60;;;;;;;20.11;61.78;101438.19;5026089;27;102240;-45
2021/09/10 08:26:01;;;;;;;7.45;5.93;;;;;;;20.11;61.78;101436.25;5024144;27;102412;-47
2021/09/10 08:28:27;;;;;;;9.43;6.40;;;;;;;20.12;61.75;101435.13;5029433;27;102709;-47
2021/09/10 08:30:55;;;;;;;7.43;6.10;;;;;;;20.12;61.85;101434.28;5027337;27;103857;-48
2021/09/10 08:33:24;;;;;;;8.00;6.37;;;;;;;20.13;61.93;101422.13;5037784;27;103324;-46
2021/09/10 08:35:50;;;;;;;7.70;6.03;;;;;;;20.14;62.00;101426.50;5023556;27;102661;-47
2021/09/10 08:38:17;;;;;;;7.82;6.90;;;;;;;20.14;61.94;101423.75;5028487;27;102576;-46
2021/09/10 08:40:46;;;;;;;9.48;6.50;;;;;;;20.15;61.81;101417.06;5012677;27;103907;-48
2021/09/10 08:43:12;;;;;;;;;;;;;;;20.15;61.62;101423.41;5014492;27;101995;-48
2021/09/10 08:45:39;;;;;;;6.75;6.05;;;;;;;20.16;61.56;101422.31;5022338;27;102518;-46
2021/09/10 08:48:08;;;;;;;7.90;6.70;;;;;;;20.17;62.14;101421.16;5038132;27;102619;-48
2021/09/10 08:50:35;;;;;;;7.50;6.50;;;;;;;20.17;61.85;101423.94;5028055;27;103860;-46
2021/09/10 08:53:03;;;;;;;9.77;6.22;;;;;;;20.17;61.52;101418.41;5028279;27;103157;-46
2021/09/10 08:55:29;;;;;;;10.38;6.85;;;;;;;20.19;61.54;101415.31;5022718;27;103075;-47
2021/09/10 08:57:56;;;;;;;8.05;6.55;;;;;;;20.19;61.27;101423.59;5012136;27;102613;-46
2021/09/10 09:00:27;;;;;;;10.80;6.72;;;;;;;20.19;61.45;101412.53;5027151;27;103117;-46
2021/09/10 09:03:00;;;;;;;10.10;6.72;;;;;;;20.20;61.28;101413.38;5026298;27;102556;-45
2021/09/10 09:05:30;;;;;;;8.63;6.55;;;;;;;20.21;61.32;101415.81;5025386;27;102393;-46
2021/09/10 09:08:12;;;;;;;8.75;6.30;;;;;;;20.21;61.33;101410.28;5025195;27;102673;-46
2021/09/10 09:10:58;;;;;;;8.60;6.22;;;;;;;20.22;61.19;101408.31;5015171;27;103987;-48
2021/09/10 09:13:27;;;;;;;8.23;5.82;;;;;;;20.21;61.11;101413.03;5027635;27;102158;-47
2021/09/10 09:16:17;;;;;;;9.50;6.40;;;;;;;20.22;61.09;101409.13;5022744;27;102171;-46
2021/09/10 09:18:45;;;;;;;8.75;6.03;;;;;;;20.22;60.56;101409.13;5027610;27;102583;-46
2021/09/10 09:21:19;;;;;;;11.50;6.93;;;;;;;20.22;60.55;101400.84;5027862;27;104110;-47
2021/09/10 09:23:46;;;;;;;8.88;6.50;;;;;;;20.22;60.72;101409.13;5025381;27;102537;-48
2021/09/10 09:26:14;;;;;;;8.05;6.20;;;;;;;20.23;60.85;101413.56;5026616;27;102597;-46
2021/09/10 09:28:41;;;;;;;9.10;6.03;;;;;;;20.23;60.85;101401.66;5019501;27;102266;-46
2021/09/10 09:31:09;;;;;;;9.25;5.85;;;;;;;20.23;60.60;101407.19;5026575;27;102441;-48
2021/09/10 09:33:37;;;;;;;8.55;6.60;;;;;;;20.23;60.61;101396.97;5036346;27;102011;-46
2021/09/10 09:36:06;;;;;;;9.23;6.73;;;;;;;20.24;60.79;101403.31;5027055;27;102380;-47
2021/09/10 09:38:36;;;;;;;9.32;6.07;;;;;;;20.23;60.56;101396.97;5028192;27;102559;-46
2021/09/10 09:41:04;;;;;;;8.23;6.25;;;;;;;20.23;60.29;101396.97;5028403;27;103904;-47
2021/09/10 09:43:33;;;;;;;9.85;6.15;;;;;;;20.23;60.21;101391.44;5025225;27;102018;-46
2021/09/10 09:46:01;;;;;;;8.38;6.15;;;;;;;20.23;60.15;101391.44;5030849;27;102643;-45
2021/09/10 09:48:28;;;;;;;8.88;6.15;;;;;;;20.23;59.71;101390.59;5022798;27;102567;-45
2021/09/10 09:50:58;;;;;;;8.50;6.07;;;;;;;20.23;59.88;101396.97;5028257;27;103683;-46
2021/09/10 09:53:24;;;;;;;8.55;5.75;;;;;;;20.22;59.66;101391.75;5021428;27;102668;-48
2021/09/10 09:55:52;;;;;;;10.52;6.00;;;;;;;20.21;59.40;101396.47;5031812;27;102535;-48
2021/09/10 09:58:19;;;;;;;11.00;6.25;;;;;;;20.22;59.24;101388.97;5033024;27;102115;-48
2021/09/10 10:00:47;;;;;;;9.40;6.25;;;;;;;20.22;59.42;101395.31;5016731;27;103988;-45
2021/09/10 10:03:14;;;;;;;7.80;6.57;;;;;;;20.21;59.18;101390.94;5019303;27;102706;-46
2021/09/10 10:05:48;;;;;;;9.23;6.13;;;;;;;20.20;59.30;101386.56;5020630;27;102136;-45
2021/09/10 10:08:22;;;;;;;8.18;6.03;;;;;;;20.21;59.42;101392.88;5021711;27;102522;-49
2021/09/10 10:10:54;;;;;;;9.68;6.65;;;;;;;20.21;59.36;101385.41;5029764;27;104361;-46
2021/09/10 10:13:26;;;;;;;7.50;5.65;;;;;;;20.20;59.61;101386.56;5026233;27;102383;-46
2021/09/10 10:15:56;;;;;;;9.32;6.20;;;;;;;20.21;59.51;101379.06;5019447;27;102446;-46
2021/09/10 10:18:36;;;;;;;7.75;5.80;;;;;;;20.19;58.98;101384.91;5025717;27;102979;-45
2021/09/10 10:21:03;;;;;;;9.60;6.13;;;;;;;20.20;59.21;101375.50;5031432;27;103397;-47
2021/09/10 10:23:55;;;;;;;8.82;6.30;;;;;;;20.20;59.13;101374.69;5023628;27;102284;-46
2021/09/10 10:26:35;;;;;;;9.30;5.82;;;;;;;20.20;58.96;101381.03;5023104;27;102456;-45
2021/09/10 10:29:05;;;;;;;7.00;5.28;;;;;;;20.20;59.30;101369.97;5030841;27;103155;-46
2021/09/10 10:32:02;;;;;;;7.32;5.65;;;;;;;20.19;59.11;101362.78;5018312;27;103147;-45
2021/09/10 10:34:29;;;;;;;10.32;6.45;;;;;;;20.20;59.42;101364.44;5025512;27;102342;-47
2021/09/10 10:36:56;;;;;;;9.18;5.88;;;;;;;20.20;59.33;101358.91;5022026;27;102722;-46
2021/09/10 10:39:30;;;;;;;8.70;5.95;;;;;;;20.20;59.22;101352.56;5014702;27;102114;-46
2021/09/10 10:42:01;;;;;;;7.93;5.72;;;;;;;20.19;58.76;101357.25;5015934;27;103993;-48
2021/09/10 10:44:47;;;;;;;7.78;5.93;;;;;;;20.19;58.97;101356.47;5027160;27;102476;-49
2021/09/10 10:47:16;;;;;;;9.32;6.05;;;;;;;20.18;58.93;101350.13;5016980;27;102599;-45
2021/09/10 10:49:44;;;;;;;13.27;6.13;;;;;;;20.17;58.89;101349.31;5022466;27;102553;-48
2021/09/10 10:52:34;;;;;;;8.07;5.63;;;;;;;20.16;58.68;101339.41;5012927;27;103933;-46
2021/09/10 10:55:21;;;;;;;7.07;5.70;;;;;;;20.16;58.67;101353.22;5021547;27;102325;-47
2021/09/10 10:57:50;;;;;;;8.13;5.85;;;;;;;20.16;58.65;101342.16;5016854;27;105869;-46
2021/09/10 11:00:56;;;;;;;8.23;5.72;;;;;;;20.15;58.26;101336.94;5020337;27;102341;-46
2021/09/10 11:03:44;;;;;;;6.93;5.65;;;;;;;20.15;58.20;101339.69;5018781;27;103992;-48
2021/09/10 11:06:35;;;;;;;8.65;6.13;;;;;;;20.13;58.17;101342.81;5012927;27;102149;-48
2021/09/10 11:09:08;;;;;;;8.25;5.68;;;;;;;20.14;58.05;101329.78;5018924;27;102476;-46
2021/09/10 11:11:36;;;;;;;8.65;5.53;;;;;;;20.14;58.46;101338.88;5028567;27;102311;-46
2021/09/10 11:14:07;;;;;;;9.35;6.15;;;;;;;20.14;58.13;101335.31;5017432;27;103870;-46
2021/09/10 11:16:34;;;;;;;7.68;6.07;;;;;;;20.13;58.25;101325.41;5017965;27;102584;-48
2021/09/10 11:19:00;;;;;;;9.25;6.07;;;;;;;20.13;58.39;101328.19;5017743;27;102330;-47
2021/09/10 11:21:29;;;;;;;9.52;5.72;;;;;;;20.13;57.97;101326.22;5023894;27;103154;-48